Sorlandet — LDTY — position and weather

sailwx.info

Track history (hours):
 
Tides and Currents Weather Stations Pressure Air Temp Water Temp Dewpoint Dewpoint Depression Visibility Wind Speed Wind Dir Waves Ship Positions

Sorlandet (Norway)

Last reported at 2017-Sep-25 05:08 UTC. Time now 2017-Sep-26 18:04 UTC.
Position N 36°45' W 006°50'.

Length 65 m; draft 4.5 m.

Type: Sailing vessel. MMSI: 257165000.

Date/timePositionNaut miles runAvg speedWind from/ knotsBaromVisibWave heightAir tempDewpointWater temp
2017-Sep-25 05:08N 36°45' W 006°50'1 6.4
2017-Sep-25 05:00N 36°45' W 006°50'3 6.6
2017-Sep-25 04:30N 36°47' W 006°54'3 5.3
2017-Sep-25 04:00N 36°48' W 006°57'0 0.9
2017-Sep-25 03:30N 36°48' W 006°58'1 0.9
2017-Sep-25 02:56N 36°48' W 006°58'0 1.0
2017-Sep-25 02:30N 36°49' W 006°59'22 2.8
2017-Sep-24 18:32N 36°44' W 007°26'0 7.0
2017-Sep-24 18:30N 36°44' W 007°26'3 6.4
2017-Sep-24 18:00N 36°42' W 007°29'19 2.0
2017-Sep-24 08:56N 36°34' W 007°50'1 2.2
2017-Sep-24 08:30N 36°35' W 007°51'1 2.0
2017-Sep-24 08:00N 36°36' W 007°52'2 2.2
2017-Sep-24 06:59N 36°38' W 007°52'1 2.8
2017-Sep-24 06:29N 36°39' W 007°52'11 2.0
2017-Sep-24 00:43N 36°50' W 007°56'1 1.1
2017-Sep-24 00:11N 36°51' W 007°57'0 1.8
2017-Sep-24 00:00N 36°51' W 007°57'1 1.8
2017-Sep-23 23:30N 36°51' W 007°58'1 2.0
2017-Sep-23 23:00N 36°51' W 007°59'1 2.6
2017-Sep-23 22:30N 36°51' W 008°01'2 3.7
2017-Sep-23 22:00N 36°51' W 008°03'2 3.6
2017-Sep-23 21:30N 36°51' W 008°06'2 3.6
2017-Sep-23 21:00N 36°51' W 008°08'2 4.1
2017-Sep-23 20:30N 36°51' W 008°10'2 5.0
2017-Sep-23 20:00N 36°51' W 008°14'173 4.1
2017-Sep-22 02:00N 39°30' W 009°40'3 6.7
2017-Sep-22 01:30N 39°33' W 009°40'5 7.6
2017-Sep-22 00:51N 39°38' W 009°38'  
Track history (hours):
 
Tides and Currents Weather Stations Pressure Air Temp Water Temp Dewpoint Dewpoint Depression Visibility Wind Speed Wind Dir Waves Ship Positions

Sorlandet (Norway)

Last reported at 2017-Sep-25 05:08 UTC. Time now 2017-Sep-26 18:04 UTC.
Position N 36°45' W 006°50'.

Length 65 m; draft 4.5 m.

Type: Sailing vessel. MMSI: 257165000.

Date/timePositionNaut miles runAvg speedWind from/ knotsBaromVisibWave heightAir tempDewpointWater temp
2017-Sep-25 05:08N 36°45' W 006°50'1 6.4
2017-Sep-25 05:00N 36°45' W 006°50'3 6.6
2017-Sep-25 04:30N 36°47' W 006°54'3 5.3
2017-Sep-25 04:00N 36°48' W 006°57'0 0.9
2017-Sep-25 03:30N 36°48' W 006°58'1 0.9
2017-Sep-25 02:56N 36°48' W 006°58'0 1.0
2017-Sep-25 02:30N 36°49' W 006°59'22 2.8
2017-Sep-24 18:32N 36°44' W 007°26'0 7.0
2017-Sep-24 18:30N 36°44' W 007°26'3 6.4
2017-Sep-24 18:00N 36°42' W 007°29'19 2.0
2017-Sep-24 08:56N 36°34' W 007°50'1 2.2
2017-Sep-24 08:30N 36°35' W 007°51'1 2.0
2017-Sep-24 08:00N 36°36' W 007°52'2 2.2
2017-Sep-24 06:59N 36°38' W 007°52'1 2.8
2017-Sep-24 06:29N 36°39' W 007°52'11 2.0
2017-Sep-24 00:43N 36°50' W 007°56'1 1.1
2017-Sep-24 00:11N 36°51' W 007°57'0 1.8
2017-Sep-24 00:00N 36°51' W 007°57'1 1.8
2017-Sep-23 23:30N 36°51' W 007°58'1 2.0
2017-Sep-23 23:00N 36°51' W 007°59'1 2.6
2017-Sep-23 22:30N 36°51' W 008°01'2 3.7
2017-Sep-23 22:00N 36°51' W 008°03'2 3.6
2017-Sep-23 21:30N 36°51' W 008°06'2 3.6
2017-Sep-23 21:00N 36°51' W 008°08'2 4.1
2017-Sep-23 20:30N 36°51' W 008°10'2 5.0
2017-Sep-23 20:00N 36°51' W 008°14'173 4.1
2017-Sep-22 02:00N 39°30' W 009°40'3 6.7
2017-Sep-22 01:30N 39°33' W 009°40'5 7.6
2017-Sep-22 00:51N 39°38' W 009°38'  

Dump ship's entire track history